createdAt,value
2022-09-28T00:01:09.203Z,8.90
2022-09-28T00:03:36.701Z,9.00
2022-09-28T00:06:08.672Z,8.90
2022-09-28T00:08:36.176Z,8.90
2022-09-28T00:11:03.688Z,8.90
2022-09-28T00:13:31.846Z,8.90
2022-09-28T00:16:06.285Z,8.80
2022-09-28T00:18:33.857Z,8.70
2022-09-28T00:21:14.295Z,8.70
2022-09-28T00:23:59.915Z,8.60
2022-09-28T00:26:27.928Z,8.50
2022-09-28T00:28:55.576Z,8.50
2022-09-28T00:31:23.900Z,8.50
2022-09-28T00:33:52.159Z,8.30
2022-09-28T00:36:19.969Z,8.40
2022-09-28T00:38:47.178Z,8.30
2022-09-28T00:41:15.015Z,8.40
2022-09-28T00:43:42.325Z,8.40
2022-09-28T00:46:16.888Z,8.20
2022-09-28T00:48:51.389Z,8.00
2022-09-28T00:51:19.452Z,8.00
2022-09-28T00:53:46.663Z,8.20
2022-09-28T00:56:17.521Z,8.10
2022-09-28T00:58:49.773Z,8.00
2022-09-28T01:01:17.280Z,7.80
2022-09-28T01:03:48.784Z,7.80
2022-09-28T01:06:19.786Z,7.80
2022-09-28T01:08:48.213Z,7.60
2022-09-28T01:11:15.398Z,7.60
2022-09-28T01:13:42.749Z,7.70
2022-09-28T01:16:22.299Z,7.70
2022-09-28T01:19:16.830Z,7.70
2022-09-28T01:21:56.268Z,7.50
2022-09-28T01:24:48.519Z,7.50
2022-09-28T01:27:36.289Z,7.50
2022-09-28T01:30:08.052Z,7.40
2022-09-28T01:32:58.812Z,7.40
2022-09-28T01:35:39.886Z,7.40
2022-09-28T01:38:28.392Z,7.40
2022-09-28T01:40:55.746Z,7.40
2022-09-28T01:43:28.987Z,7.50
2022-09-28T01:46:17.470Z,7.50
2022-09-28T01:48:52.020Z,7.40
2022-09-28T01:51:32.613Z,7.40
2022-09-28T01:54:02.205Z,7.20
2022-09-28T01:56:32.790Z,7.10
2022-09-28T01:59:12.697Z,7.10
2022-09-28T02:02:05.719Z,7.20
2022-09-28T02:04:43.220Z,7.10
2022-09-28T02:07:15.931Z,7.20
2022-09-28T02:09:47.700Z,7.10
2022-09-28T02:12:38.013Z,7.20
2022-09-28T02:15:22.927Z,7.20
2022-09-28T02:17:50.180Z,7.20
2022-09-28T02:20:17.444Z,7.20
2022-09-28T02:22:49.635Z,7.20
2022-09-28T02:25:30.486Z,7.40
2022-09-28T02:28:01.218Z,7.40
2022-09-28T02:30:32.176Z,7.30
2022-09-28T02:33:28.780Z,7.40
2022-09-28T02:35:55.912Z,7.40
2022-09-28T02:38:23.037Z,7.40
2022-09-28T02:40:58.260Z,7.40
2022-09-28T02:43:27.380Z,7.40
2022-09-28T02:46:18.223Z,7.50
2022-09-28T02:49:20.507Z,7.50
2022-09-28T02:52:17.512Z,7.40
2022-09-28T02:54:56.757Z,7.40
2022-09-28T02:57:53.119Z,7.60
2022-09-28T03:00:24.476Z,7.60
2022-09-28T03:02:51.824Z,7.60
2022-09-28T03:05:20.089Z,7.60
2022-09-28T03:07:57.491Z,7.50
2022-09-28T03:10:43.495Z,7.40
2022-09-28T03:13:11.534Z,7.50
2022-09-28T03:15:38.831Z,7.60
2022-09-28T03:18:06.284Z,7.60
2022-09-28T03:20:34.612Z,7.70
2022-09-28T03:25:49.256Z,7.60
2022-09-28T03:28:16.415Z,7.60
2022-09-28T03:30:43.571Z,7.40
2022-09-28T03:33:10.827Z,7.40
2022-09-28T03:35:38.180Z,7.40
2022-09-28T03:38:05.197Z,7.40
2022-09-28T03:40:32.308Z,7.40
2022-09-28T03:43:01.115Z,7.40
2022-09-28T03:45:28.278Z,7.40
2022-09-28T03:47:55.631Z,7.40
2022-09-28T03:50:22.803Z,7.30
2022-09-28T03:52:49.787Z,7.30
2022-09-28T03:55:17.098Z,7.30
2022-09-28T03:57:44.301Z,7.30
2022-09-28T04:00:11.893Z,7.30
2022-09-28T04:02:38.975Z,7.30
2022-09-28T04:05:06.351Z,7.10
2022-09-28T04:07:33.475Z,7.20
2022-09-28T04:10:00.676Z,7.20
2022-09-28T04:12:27.778Z,7.20
2022-09-28T04:14:54.890Z,7.20
2022-09-28T04:17:22.216Z,7.20
2022-09-28T04:19:49.204Z,7.20
2022-09-28T04:22:16.439Z,7.10
2022-09-28T04:24:43.722Z,7.00
2022-09-28T04:27:29.395Z,6.80
2022-09-28T04:29:56.486Z,6.90
2022-09-28T04:32:23.545Z,6.70
2022-09-28T04:34:51.509Z,6.70
2022-09-28T04:37:18.624Z,6.70
2022-09-28T04:39:48.371Z,6.60
2022-09-28T04:42:16.126Z,6.70
2022-09-28T04:44:43.653Z,6.60
2022-09-28T04:47:10.948Z,6.50
2022-09-28T04:49:38.551Z,6.50
2022-09-28T04:52:06.030Z,6.40
2022-09-28T04:54:33.383Z,6.40
2022-09-28T04:57:00.591Z,6.40
2022-09-28T04:59:27.967Z,6.30
2022-09-28T05:01:55.223Z,6.30
2022-09-28T05:04:25.801Z,6.10
2022-09-28T05:06:53.530Z,6.10
2022-09-28T05:09:20.653Z,6.00
2022-09-28T05:11:50.028Z,6.10
2022-09-28T05:14:17.410Z,6.10
2022-09-28T05:16:45.103Z,6.10
2022-09-28T05:19:12.650Z,6.10
2022-09-28T05:21:40.076Z,6.20
2022-09-28T05:24:07.873Z,6.30
2022-09-28T05:26:35.153Z,6.30
2022-09-28T05:29:02.691Z,6.40
2022-09-28T05:31:30.216Z,6.40
2022-09-28T05:33:57.537Z,6.30
2022-09-28T05:36:27.521Z,6.30
2022-09-28T05:38:54.743Z,6.50
2022-09-28T05:41:21.953Z,6.50
2022-09-28T05:43:49.314Z,6.60
2022-09-28T05:46:16.811Z,6.70
2022-09-28T05:48:44.111Z,6.90
2022-09-28T05:51:11.422Z,6.80
2022-09-28T05:53:38.599Z,6.90
2022-09-28T05:56:05.948Z,7.00
2022-09-28T05:58:33.369Z,7.00
2022-09-28T06:01:00.448Z,6.90
2022-09-28T06:03:27.955Z,6.90
2022-09-28T06:05:55.207Z,7.00
2022-09-28T06:08:22.484Z,7.10
2022-09-28T06:10:49.571Z,7.10
2022-09-28T06:13:16.921Z,7.30
2022-09-28T06:15:46.462Z,7.40
2022-09-28T06:18:15.208Z,7.40
2022-09-28T06:20:42.390Z,7.40
2022-09-28T06:23:10.744Z,7.40
2022-09-28T06:25:38.087Z,7.40
2022-09-28T06:28:06.846Z,7.50
2022-09-28T06:30:34.791Z,7.60
2022-09-28T06:33:02.130Z,7.60
2022-09-28T06:35:30.628Z,7.60
2022-09-28T06:37:58.537Z,7.50
2022-09-28T06:40:26.004Z,7.50
2022-09-28T06:43:03.159Z,7.60
2022-09-28T06:45:30.406Z,7.70
2022-09-28T06:47:59.213Z,8.00
2022-09-28T06:50:42.217Z,8.20
2022-09-28T06:53:10.962Z,8.70
2022-09-28T06:55:41.731Z,9.20
2022-09-28T06:58:11.434Z,9.70
2022-09-28T07:00:39.016Z,9.90
2022-09-28T07:03:07.817Z,10.00
2022-09-28T07:05:37.111Z,10.00
2022-09-28T07:08:04.778Z,10.20
2022-09-28T07:10:32.077Z,10.40
2022-09-28T07:13:06.014Z,10.50
2022-09-28T07:15:33.779Z,10.30
2022-09-28T07:18:03.573Z,10.40
2022-09-28T07:20:32.013Z,10.30
2022-09-28T07:23:13.026Z,10.20
2022-09-28T07:25:48.195Z,10.20
2022-09-28T07:28:15.551Z,10.10
2022-09-28T07:30:44.416Z,10.00
2022-09-28T07:33:12.849Z,10.00
2022-09-28T07:35:41.953Z,10.10
2022-09-28T07:38:09.030Z,10.20
2022-09-28T07:40:55.050Z,10.10
2022-09-28T07:43:22.423Z,10.10
2022-09-28T07:45:50.892Z,10.00
2022-09-28T07:48:18.840Z,10.10
2022-09-28T07:50:53.551Z,10.10
2022-09-28T07:53:21.235Z,10.10
2022-09-28T07:55:55.088Z,10.30
2022-09-28T07:58:22.651Z,10.30
2022-09-28T08:00:49.917Z,10.20
2022-09-28T08:03:17.603Z,10.30
2022-09-28T08:05:44.622Z,10.40
2022-09-28T08:08:11.641Z,10.40
2022-09-28T08:10:38.894Z,10.50
2022-09-28T08:13:08.603Z,10.60
2022-09-28T08:15:37.133Z,10.60
2022-09-28T08:18:04.794Z,10.70
2022-09-28T08:20:51.833Z,10.80
2022-09-28T08:23:20.471Z,10.90
2022-09-28T08:25:51.030Z,10.90
2022-09-28T08:28:18.079Z,11.00
2022-09-28T08:30:45.965Z,11.10
2022-09-28T08:33:21.470Z,11.20
2022-09-28T08:35:48.740Z,11.00
2022-09-28T08:38:15.753Z,11.00
2022-09-28T08:41:05.936Z,11.10
2022-09-28T08:43:54.888Z,11.20
2022-09-28T08:46:26.477Z,11.30
2022-09-28T08:49:23.771Z,11.50
2022-09-28T08:52:08.363Z,11.60
2022-09-28T08:54:49.162Z,11.60
2022-09-28T08:57:21.240Z,11.60
2022-09-28T08:59:54.746Z,11.70
2022-09-28T09:02:29.783Z,11.60
2022-09-28T09:04:57.631Z,11.60
2022-09-28T09:07:49.512Z,11.80
2022-09-28T09:10:49.109Z,11.80
2022-09-28T09:13:53.863Z,11.80
2022-09-28T09:16:39.057Z,11.90
2022-09-28T09:19:36.452Z,12.00
2022-09-28T09:22:13.626Z,12.00
2022-09-28T09:24:51.809Z,11.90
2022-09-28T09:27:18.993Z,12.00
2022-09-28T09:30:03.039Z,12.10
2022-09-28T09:32:40.508Z,12.10
2022-09-28T09:35:17.327Z,12.10
2022-09-28T09:38:00.371Z,12.20
2022-09-28T09:40:30.608Z,12.20
2022-09-28T09:42:57.865Z,12.30
2022-09-28T09:45:50.394Z,12.40
2022-09-28T09:48:25.493Z,12.50
2022-09-28T09:50:57.487Z,12.50
2022-09-28T09:53:24.828Z,12.50
2022-09-28T09:55:57.425Z,12.50
2022-09-28T09:58:36.249Z,12.60
2022-09-28T10:01:14.319Z,12.40
2022-09-28T10:03:42.876Z,12.40
2022-09-28T10:06:34.273Z,12.10
2022-09-28T10:09:04.695Z,12.10
2022-09-28T10:11:37.093Z,12.30
2022-09-28T10:14:04.621Z,12.00
2022-09-28T10:16:33.401Z,12.00
2022-09-28T10:19:00.911Z,11.90
2022-09-28T10:21:27.838Z,12.00
2022-09-28T10:23:59.856Z,12.00
2022-09-28T10:26:34.842Z,12.00
2022-09-28T10:29:04.365Z,11.80
2022-09-28T10:31:37.014Z,11.90
2022-09-28T10:34:06.243Z,11.70
2022-09-28T10:36:38.688Z,11.80
2022-09-28T10:39:06.193Z,11.80
2022-09-28T10:41:33.280Z,11.80
2022-09-28T10:44:08.956Z,11.70
2022-09-28T10:46:36.268Z,11.90
2022-09-28T10:49:06.952Z,12.00
2022-09-28T10:51:43.273Z,11.90
2022-09-28T10:54:17.765Z,11.70
2022-09-28T10:56:44.878Z,11.80
2022-09-28T10:59:30.238Z,11.90
2022-09-28T11:01:59.555Z,11.60
2022-09-28T11:04:28.925Z,11.50
2022-09-28T11:09:34.962Z,11.60
2022-09-28T11:12:03.761Z,11.50
2022-09-28T11:14:42.993Z,11.60
2022-09-28T11:17:32.782Z,11.50
2022-09-28T11:20:28.551Z,11.40
2022-09-28T11:23:00.291Z,11.40
2022-09-28T11:25:31.485Z,11.50
2022-09-28T11:28:00.674Z,11.60
2022-09-28T11:30:27.712Z,11.70
2022-09-28T11:32:57.809Z,11.70
2022-09-28T11:35:33.144Z,11.90
2022-09-28T11:38:31.891Z,11.90
2022-09-28T11:41:23.098Z,12.00
2022-09-28T11:44:10.597Z,11.90
2022-09-28T11:47:05.394Z,11.90
2022-09-28T11:49:49.424Z,12.00
2022-09-28T11:52:21.200Z,12.20
2022-09-28T11:55:20.727Z,12.30
2022-09-28T11:57:50.862Z,12.50
2022-09-28T12:00:20.987Z,12.50
2022-09-28T12:03:15.399Z,12.40
2022-09-28T12:05:52.135Z,12.30
2022-09-28T12:08:27.883Z,12.40
2022-09-28T12:10:57.942Z,12.40
2022-09-28T12:13:27.837Z,12.30
2022-09-28T12:19:13.999Z,12.20
2022-09-28T12:21:57.771Z,12.10
2022-09-28T12:24:37.882Z,12.30
2022-09-28T12:27:10.443Z,12.20
2022-09-28T12:30:10.524Z,12.20
2022-09-28T12:32:53.982Z,12.40
2022-09-28T12:35:28.504Z,12.40
2022-09-28T12:38:27.717Z,12.40
2022-09-28T12:41:11.807Z,12.30
2022-09-28T12:44:17.778Z,12.40
2022-09-28T12:47:09.829Z,12.40
2022-09-28T12:53:03.340Z,12.30
2022-09-28T12:55:38.009Z,12.30
2022-09-28T12:58:41.888Z,12.50
2022-09-28T13:01:27.347Z,12.60
2022-09-28T13:04:12.799Z,12.60
2022-09-28T13:06:52.178Z,12.60
2022-09-28T13:09:25.334Z,12.60
2022-09-28T13:12:19.486Z,12.50
2022-09-28T13:15:29.580Z,12.60
2022-09-28T13:18:14.538Z,12.70
2022-09-28T13:20:57.179Z,12.60
2022-09-28T13:23:43.637Z,12.60
2022-09-28T13:26:22.685Z,12.70
2022-09-28T13:28:51.570Z,12.60
2022-09-28T13:31:20.705Z,12.40
2022-09-28T13:33:47.692Z,12.40
2022-09-28T13:36:30.496Z,12.40
2022-09-28T13:39:01.033Z,12.50
2022-09-28T13:41:30.480Z,12.40
2022-09-28T13:44:03.511Z,12.40
2022-09-28T13:47:29.612Z,12.20
2022-09-28T13:50:21.214Z,12.20
2022-09-28T13:53:21.283Z,12.20
2022-09-28T13:56:18.614Z,12.30
2022-09-28T13:59:02.481Z,12.30
2022-09-28T14:01:40.986Z,12.30
2022-09-28T14:04:21.238Z,12.30
2022-09-28T14:07:15.326Z,12.20
2022-09-28T14:09:49.524Z,12.30
2022-09-28T14:12:36.720Z,12.30
2022-09-28T14:15:24.484Z,12.30
2022-09-28T14:17:55.099Z,12.20
2022-09-28T14:20:23.158Z,12.10
2022-09-28T14:22:53.883Z,12.10
2022-09-28T14:25:25.361Z,12.10
2022-09-28T14:28:07.944Z,12.10
2022-09-28T14:30:43.892Z,12.10
2022-09-28T14:33:23.631Z,12.10
2022-09-28T14:36:07.013Z,12.00
2022-09-28T14:39:10.424Z,12.00
2022-09-28T14:41:39.066Z,12.00
2022-09-28T14:44:08.848Z,11.90
2022-09-28T14:46:38.053Z,11.80
2022-09-28T14:49:17.759Z,12.00
2022-09-28T14:51:47.503Z,12.10
2022-09-28T14:54:19.959Z,12.20
2022-09-28T14:56:49.943Z,12.10
2022-09-28T14:59:31.063Z,12.10
2022-09-28T15:02:06.734Z,12.10
2022-09-28T15:04:36.403Z,12.00
2022-09-28T15:07:03.539Z,12.10
2022-09-28T15:09:34.618Z,12.00
2022-09-28T15:12:17.392Z,12.20
2022-09-28T15:14:48.136Z,12.20
2022-09-28T15:17:19.124Z,12.10
2022-09-28T15:19:53.927Z,11.90
2022-09-28T15:22:21.300Z,11.90
2022-09-28T15:25:01.402Z,11.90
2022-09-28T15:27:36.794Z,11.80
2022-09-28T15:30:17.278Z,11.80
2022-09-28T15:32:44.386Z,11.60
2022-09-28T15:35:20.719Z,11.70
2022-09-28T15:37:52.184Z,11.40
2022-09-28T15:40:29.718Z,11.50
2022-09-28T15:42:59.276Z,11.60
2022-09-28T15:45:30.875Z,11.60
2022-09-28T15:48:20.663Z,11.50
2022-09-28T15:51:17.711Z,11.50
2022-09-28T15:54:03.129Z,11.30
2022-09-28T15:56:30.628Z,11.30
2022-09-28T15:59:13.764Z,11.20
2022-09-28T16:01:41.854Z,11.00
2022-09-28T16:04:50.909Z,11.00
2022-09-28T16:07:39.531Z,11.10
2022-09-28T16:10:33.594Z,11.00
2022-09-28T16:13:20.209Z,11.00
2022-09-28T16:16:17.056Z,10.90
2022-09-28T16:18:57.428Z,10.90
2022-09-28T16:21:45.153Z,11.00
2022-09-28T16:24:31.854Z,11.00
2022-09-28T16:27:06.694Z,11.00
2022-09-28T16:29:39.925Z,10.70
2022-09-28T16:32:52.060Z,10.50
2022-09-28T16:35:32.561Z,10.40
2022-09-28T16:38:14.577Z,10.30
2022-09-28T16:40:50.785Z,10.30
2022-09-28T16:43:23.567Z,10.30
2022-09-28T16:45:50.604Z,10.30
2022-09-28T16:48:19.570Z,10.30
2022-09-28T16:50:46.837Z,10.20
2022-09-28T16:53:48.495Z,10.30
2022-09-28T16:56:16.521Z,10.40
2022-09-28T16:58:44.304Z,10.30
2022-09-28T17:01:18.134Z,10.30
2022-09-28T17:03:48.958Z,10.20
2022-09-28T17:06:17.149Z,10.20
2022-09-28T17:08:44.609Z,10.30
2022-09-28T17:11:20.458Z,10.10
2022-09-28T17:13:50.629Z,10.20
2022-09-28T17:16:37.190Z,10.20
2022-09-28T17:19:30.023Z,10.00
2022-09-28T17:21:57.698Z,9.90
2022-09-28T17:24:24.954Z,9.90
2022-09-28T17:26:52.206Z,10.00
2022-09-28T17:29:19.453Z,9.90
2022-09-28T17:31:47.138Z,9.90
2022-09-28T17:34:16.391Z,9.80
2022-09-28T17:36:44.161Z,9.80
2022-09-28T17:39:15.785Z,9.80
2022-09-28T17:41:43.275Z,9.90
2022-09-28T17:44:10.344Z,9.90
2022-09-28T17:46:39.023Z,9.90
2022-09-28T17:49:06.907Z,9.80
2022-09-28T17:51:35.438Z,9.90
2022-09-28T17:54:02.712Z,9.70
2022-09-28T17:56:32.468Z,9.80
2022-09-28T17:59:00.914Z,9.80
2022-09-28T18:01:34.840Z,9.70
2022-09-28T18:04:03.258Z,9.80
2022-09-28T18:06:32.051Z,9.80
2022-09-28T18:08:59.284Z,9.70
2022-09-28T18:11:26.754Z,9.70
2022-09-28T18:13:53.827Z,9.70
2022-09-28T18:16:23.196Z,9.80
2022-09-28T18:18:50.441Z,9.70
2022-09-28T18:21:17.512Z,9.70
2022-09-28T18:23:44.695Z,9.70
2022-09-28T18:26:12.747Z,9.70
2022-09-28T18:28:40.190Z,9.70
2022-09-28T18:31:11.400Z,9.80
2022-09-28T18:33:38.787Z,9.80
2022-09-28T18:36:06.384Z,9.80
2022-09-28T18:38:36.196Z,9.60
2022-09-28T18:41:10.275Z,9.80
2022-09-28T18:43:37.696Z,9.70
2022-09-28T18:46:09.423Z,9.70
2022-09-28T18:48:37.471Z,9.70
2022-09-28T18:51:08.591Z,9.70
2022-09-28T18:53:36.466Z,9.70
2022-09-28T18:56:12.442Z,9.70
2022-09-28T18:58:40.124Z,9.60
2022-09-28T19:01:30.027Z,9.60
2022-09-28T19:04:01.485Z,9.60
2022-09-28T19:06:28.677Z,9.70
2022-09-28T19:08:55.969Z,9.70
2022-09-28T19:11:23.181Z,9.60
2022-09-28T19:13:50.565Z,9.70
2022-09-28T19:16:21.076Z,9.70
2022-09-28T19:18:48.385Z,9.70
2022-09-28T19:21:15.605Z,9.70
2022-09-28T19:23:46.935Z,9.70
2022-09-28T19:26:21.310Z,9.60
2022-09-28T19:28:48.600Z,9.80
2022-09-28T19:31:16.049Z,9.70
2022-09-28T19:33:45.150Z,9.70
2022-09-28T19:36:13.933Z,9.80
2022-09-28T19:38:41.397Z,9.60
2022-09-28T19:41:39.111Z,9.60
2022-09-28T19:44:25.615Z,9.50
2022-09-28T19:47:10.158Z,9.60
2022-09-28T19:49:38.837Z,9.60
2022-09-28T19:52:17.332Z,9.70
2022-09-28T19:54:57.548Z,9.60
2022-09-28T19:57:26.140Z,9.70
2022-09-28T19:59:55.747Z,9.70
2022-09-28T20:02:25.260Z,9.70
2022-09-28T20:04:52.419Z,9.70
2022-09-28T20:07:19.611Z,9.60
2022-09-28T20:09:46.983Z,9.60
2022-09-28T20:12:14.173Z,9.70
2022-09-28T20:14:41.727Z,9.70
2022-09-28T20:17:09.453Z,9.70
2022-09-28T20:19:36.800Z,9.70
2022-09-28T20:22:03.960Z,9.80
2022-09-28T20:24:31.608Z,9.70
2022-09-28T20:26:59.263Z,9.70
2022-09-28T20:29:26.880Z,9.70
2022-09-28T20:31:54.582Z,9.80
2022-09-28T20:34:21.810Z,9.70
2022-09-28T20:36:49.043Z,9.70
2022-09-28T20:39:16.314Z,9.80
2022-09-28T20:41:43.628Z,9.60
2022-09-28T20:44:10.907Z,9.60
2022-09-28T20:46:38.339Z,9.60
2022-09-28T20:49:05.751Z,9.60
2022-09-28T20:51:33.097Z,9.70
2022-09-28T20:54:00.589Z,9.70
2022-09-28T20:56:29.529Z,9.80
2022-09-28T20:58:57.148Z,9.80
2022-09-28T21:01:25.537Z,9.80
2022-09-28T21:03:54.082Z,9.70
2022-09-28T21:06:22.213Z,9.60
2022-09-28T21:08:49.871Z,9.60
2022-09-28T21:11:18.294Z,9.60
2022-09-28T21:13:45.972Z,9.50
2022-09-28T21:16:14.793Z,9.50
2022-09-28T21:18:42.007Z,9.50
2022-09-28T21:21:11.303Z,9.40
2022-09-28T21:23:38.569Z,9.40
2022-09-28T21:26:10.110Z,9.50
2022-09-28T21:28:37.697Z,9.60
2022-09-28T21:31:09.483Z,9.50
2022-09-28T21:33:36.844Z,9.50
2022-09-28T21:36:05.049Z,9.60
2022-09-28T21:38:32.692Z,9.50
2022-09-28T21:41:00.154Z,9.50
2022-09-28T21:43:28.062Z,9.60
2022-09-28T21:45:55.746Z,9.50
2022-09-28T21:48:23.644Z,9.50
2022-09-28T21:50:57.790Z,9.50
2022-09-28T21:53:25.882Z,9.50
2022-09-28T21:55:53.381Z,9.40
2022-09-28T21:58:23.561Z,9.50
2022-09-28T22:00:55.701Z,9.50
2022-09-28T22:03:25.876Z,9.60
2022-09-28T22:05:53.117Z,9.60
2022-09-28T22:08:20.865Z,9.40
2022-09-28T22:11:00.914Z,9.30
2022-09-28T22:13:29.151Z,9.30
2022-09-28T22:15:57.981Z,9.30
2022-09-28T22:18:26.423Z,9.30
2022-09-28T22:21:07.294Z,9.30
2022-09-28T22:23:34.645Z,9.40
2022-09-28T22:26:04.241Z,9.40
2022-09-28T22:28:31.450Z,9.40
2022-09-28T22:30:58.624Z,9.30
2022-09-28T22:33:26.222Z,9.40
2022-09-28T22:35:53.431Z,9.40
2022-09-28T22:38:21.050Z,9.40
2022-09-28T22:40:49.409Z,9.50
2022-09-28T22:43:16.817Z,9.50
2022-09-28T22:45:44.412Z,9.50
2022-09-28T22:48:11.476Z,9.40
2022-09-28T22:50:39.077Z,9.50
2022-09-28T22:53:06.722Z,9.40
2022-09-28T22:55:34.189Z,9.40
2022-09-28T22:58:02.018Z,9.40
2022-09-28T23:00:29.266Z,9.30
2022-09-28T23:02:56.266Z,9.30
2022-09-28T23:05:23.255Z,9.30
2022-09-28T23:07:50.308Z,9.30
2022-09-28T23:10:17.357Z,9.30
2022-09-28T23:12:44.687Z,9.20
2022-09-28T23:15:11.674Z,9.20
2022-09-28T23:17:38.725Z,9.20
2022-09-28T23:20:06.118Z,9.20
2022-09-28T23:22:33.284Z,9.00
2022-09-28T23:25:00.405Z,9.10
2022-09-28T23:27:27.350Z,9.20
2022-09-28T23:29:54.706Z,9.30
2022-09-28T23:32:21.597Z,9.20
2022-09-28T23:34:48.803Z,9.20
2022-09-28T23:37:15.832Z,9.20
2022-09-28T23:39:43.832Z,9.20
2022-09-28T23:42:10.971Z,9.20
2022-09-28T23:44:38.224Z,9.20
2022-09-28T23:47:05.346Z,9.10
2022-09-28T23:49:32.589Z,9.10
2022-09-28T23:51:59.649Z,9.10
2022-09-28T23:54:26.593Z,9.00
2022-09-28T23:56:53.885Z,9.00
2022-09-28T23:59:20.912Z,8.80
